createdAt,value
2019-04-04T00:00:34.860Z,6.30
2019-04-04T00:03:04.310Z,6.27
2019-04-04T00:05:33.713Z,6.22
2019-04-04T00:08:02.961Z,6.17
2019-04-04T00:10:32.871Z,6.10
2019-04-04T00:13:03.606Z,6.05
2019-04-04T00:15:32.958Z,5.97
2019-04-04T00:18:02.320Z,5.95
2019-04-04T00:20:32.408Z,5.94
2019-04-04T00:23:01.812Z,5.94
2019-04-04T00:25:31.438Z,5.93
2019-04-04T00:28:00.718Z,5.91
2019-04-04T00:30:30.147Z,5.88
2019-04-04T00:32:59.450Z,5.81
2019-04-04T00:35:30.759Z,5.73
2019-04-04T00:37:59.772Z,5.67
2019-04-04T00:40:29.189Z,5.61
2019-04-04T00:43:01.193Z,5.54
2019-04-04T00:45:30.846Z,5.46
2019-04-04T00:48:01.106Z,5.38
2019-04-04T00:50:31.169Z,5.29
2019-04-04T00:53:00.708Z,5.20
2019-04-04T00:55:29.975Z,5.10
2019-04-04T00:57:59.258Z,5.04
2019-04-04T01:00:28.461Z,5.05
2019-04-04T01:02:58.585Z,5.07
2019-04-04T01:05:28.251Z,5.16
2019-04-04T01:07:57.601Z,5.30
2019-04-04T01:10:27.590Z,5.45
2019-04-04T01:12:57.010Z,5.55
2019-04-04T01:15:26.388Z,5.59
2019-04-04T01:17:55.779Z,5.63
2019-04-04T01:20:25.164Z,5.64
2019-04-04T01:22:56.140Z,5.64
2019-04-04T01:25:25.540Z,5.62
2019-04-04T01:27:54.900Z,5.61
2019-04-04T01:30:24.108Z,5.60
2019-04-04T01:32:53.488Z,5.57
2019-04-04T01:35:23.310Z,5.53
2019-04-04T01:37:52.810Z,5.50
2019-04-04T01:40:22.164Z,5.47
2019-04-04T01:42:51.542Z,5.45
2019-04-04T01:45:20.764Z,5.43
2019-04-04T01:47:50.011Z,5.42
2019-04-04T01:50:22.467Z,5.47
2019-04-04T01:52:50.701Z,5.50
2019-04-04T01:55:22.067Z,5.53
2019-04-04T01:57:51.351Z,5.57
2019-04-04T02:00:20.955Z,5.58
2019-04-04T02:02:51.926Z,5.58
2019-04-04T02:05:26.730Z,5.56
2019-04-04T02:07:54.595Z,5.48
2019-04-04T02:10:23.880Z,5.37
2019-04-04T02:12:53.119Z,5.24
2019-04-04T02:15:22.376Z,5.14
2019-04-04T02:17:52.912Z,5.04
2019-04-04T02:20:22.744Z,4.95
2019-04-04T02:22:52.022Z,4.84
2019-04-04T02:25:21.300Z,4.73
2019-04-04T02:27:50.538Z,4.61
2019-04-04T02:30:19.847Z,4.53
2019-04-04T02:32:49.235Z,4.45
2019-04-04T02:35:18.500Z,4.37
2019-04-04T02:37:47.905Z,4.31
2019-04-04T02:40:17.308Z,4.21
2019-04-04T02:42:46.551Z,4.09
2019-04-04T02:45:15.864Z,4.02
2019-04-04T02:47:45.127Z,3.94
2019-04-04T02:50:14.498Z,3.85
2019-04-04T02:52:46.203Z,3.81
2019-04-04T02:55:14.980Z,3.80
2019-04-04T02:57:44.367Z,3.80
2019-04-04T03:00:14.030Z,3.81
2019-04-04T03:02:43.372Z,3.79
2019-04-04T03:05:12.652Z,3.76
2019-04-04T03:07:42.358Z,3.73
2019-04-04T03:10:15.193Z,3.66
2019-04-04T03:12:42.632Z,3.58
2019-04-04T03:15:11.956Z,3.48
2019-04-04T03:17:41.254Z,3.41
2019-04-04T03:20:11.078Z,3.36
2019-04-04T03:22:40.861Z,3.38
2019-04-04T03:25:14.205Z,3.45
2019-04-04T03:27:42.645Z,3.52
2019-04-04T03:30:14.444Z,3.59
2019-04-04T03:32:43.185Z,3.62
2019-04-04T03:35:12.598Z,3.62
2019-04-04T03:37:42.001Z,3.63
2019-04-04T03:40:13.805Z,3.63
2019-04-04T03:42:44.350Z,3.63
2019-04-04T03:45:14.140Z,3.60
2019-04-04T03:47:44.684Z,3.56
2019-04-04T03:50:14.534Z,3.58
2019-04-04T03:52:44.659Z,3.58
2019-04-04T03:55:14.159Z,3.62
2019-04-04T03:57:43.391Z,3.66
2019-04-04T04:00:22.431Z,3.64
2019-04-04T04:02:53.239Z,3.58
2019-04-04T04:05:27.065Z,3.53
2019-04-04T04:07:56.407Z,3.52
2019-04-04T04:10:25.727Z,3.50
2019-04-04T04:12:54.948Z,3.42
2019-04-04T04:15:24.228Z,3.37
2019-04-04T04:17:53.490Z,3.28
2019-04-04T04:20:22.782Z,3.25
2019-04-04T04:22:52.052Z,3.21
2019-04-04T04:25:21.329Z,3.27
2019-04-04T04:27:51.075Z,3.32
2019-04-04T04:30:20.299Z,3.30
2019-04-04T04:32:49.672Z,3.19
2019-04-04T04:35:19.038Z,3.13
2019-04-04T04:37:52.328Z,3.08
2019-04-04T04:40:19.361Z,3.05
2019-04-04T04:42:48.608Z,2.99
2019-04-04T04:45:17.923Z,2.96
2019-04-04T04:47:47.276Z,2.98
2019-04-04T04:50:18.036Z,2.98
2019-04-04T04:52:47.715Z,2.99
2019-04-04T04:55:17.117Z,3.00
2019-04-04T04:57:46.587Z,3.04
2019-04-04T05:00:16.685Z,3.07
2019-04-04T05:02:46.308Z,3.11
2019-04-04T05:05:15.761Z,3.14
2019-04-04T05:07:46.434Z,3.15
2019-04-04T05:10:15.851Z,3.15
2019-04-04T05:12:45.201Z,3.13
2019-04-04T05:15:14.608Z,3.10
2019-04-04T05:17:43.921Z,3.12
2019-04-04T05:20:13.389Z,3.12
2019-04-04T05:22:42.671Z,3.16
2019-04-04T05:25:12.079Z,3.33
2019-04-04T05:27:41.473Z,3.52
2019-04-04T05:30:10.889Z,3.68
2019-04-04T05:32:40.365Z,3.83
2019-04-04T05:35:09.738Z,3.99
2019-04-04T05:37:39.540Z,4.11
2019-04-04T05:40:09.844Z,4.24
2019-04-04T05:42:39.138Z,4.35
2019-04-04T05:45:08.807Z,4.47
2019-04-04T05:47:38.179Z,4.61
2019-04-04T05:50:11.123Z,4.76
2019-04-04T05:52:38.840Z,4.89
2019-04-04T05:55:10.256Z,4.99
2019-04-04T05:57:39.210Z,5.12
2019-04-04T06:00:11.737Z,5.25
2019-04-04T06:02:43.133Z,5.32
2019-04-04T06:05:12.095Z,5.38
2019-04-04T06:07:41.476Z,5.44
2019-04-04T06:10:12.115Z,5.51
2019-04-04T06:12:41.730Z,5.55
2019-04-04T06:15:11.042Z,5.55
2019-04-04T06:17:40.325Z,5.55
2019-04-04T06:20:11.115Z,5.54
2019-04-04T06:22:40.542Z,5.52
2019-04-04T06:25:10.077Z,5.49
2019-04-04T06:27:40.275Z,5.50
2019-04-04T06:30:10.419Z,5.54
2019-04-04T06:32:39.828Z,5.60
2019-04-04T06:35:09.664Z,5.65
2019-04-04T06:37:39.049Z,5.69
2019-04-04T06:40:08.668Z,5.73
2019-04-04T06:42:37.904Z,5.79
2019-04-04T06:45:07.529Z,5.83
2019-04-04T06:47:36.794Z,5.82
2019-04-04T06:50:08.467Z,5.77
2019-04-04T06:52:38.168Z,5.77
2019-04-04T06:55:07.770Z,5.86
2019-04-04T06:57:37.679Z,5.91
2019-04-04T07:00:09.220Z,5.96
2019-04-04T07:02:38.662Z,5.99
2019-04-04T07:05:10.514Z,5.99
2019-04-04T07:07:43.129Z,5.98
2019-04-04T07:10:11.817Z,5.99
2019-04-04T07:12:41.187Z,6.04
2019-04-04T07:15:12.549Z,6.09
2019-04-04T07:17:41.874Z,6.02
2019-04-04T07:20:11.373Z,5.97
2019-04-04T07:22:40.745Z,6.03
2019-04-04T07:25:10.968Z,6.04
2019-04-04T07:27:40.360Z,6.08
2019-04-04T07:30:09.988Z,6.04
2019-04-04T07:32:41.553Z,6.09
2019-04-04T07:35:10.338Z,6.06
2019-04-04T07:37:39.680Z,6.11
2019-04-04T07:40:09.079Z,6.24
2019-04-04T07:42:40.283Z,6.28
2019-04-04T07:45:09.891Z,6.29
2019-04-04T07:47:39.225Z,6.11
2019-04-04T07:50:08.952Z,6.08
2019-04-04T07:52:38.457Z,5.92
2019-04-04T07:55:10.061Z,5.93
2019-04-04T07:57:39.145Z,5.99
2019-04-04T08:00:09.041Z,6.10
2019-04-04T08:02:38.336Z,6.13
2019-04-04T08:05:08.297Z,6.24
2019-04-04T08:07:37.526Z,6.38
2019-04-04T08:10:19.509Z,6.33
2019-04-04T08:12:38.270Z,6.25
2019-04-04T08:15:08.005Z,6.15
2019-04-04T08:17:37.423Z,6.07
2019-04-04T08:20:06.956Z,5.98
2019-04-04T08:22:39.593Z,6.11
2019-04-04T08:25:07.485Z,6.18
2019-04-04T08:27:36.765Z,6.23
2019-04-04T08:30:06.854Z,6.14
2019-04-04T08:32:36.176Z,6.04
2019-04-04T08:35:06.385Z,6.17
2019-04-04T08:37:35.773Z,6.18
2019-04-04T08:40:05.790Z,6.21
2019-04-04T08:42:35.264Z,6.17
2019-04-04T08:45:04.959Z,6.12
2019-04-04T08:47:34.314Z,6.18
2019-04-04T08:50:03.722Z,6.23
2019-04-04T08:52:32.979Z,6.37
2019-04-04T08:55:02.369Z,6.52
2019-04-04T08:57:31.677Z,6.63
2019-04-04T09:00:01.071Z,6.62
2019-04-04T09:02:30.452Z,6.65
2019-04-04T09:05:11.129Z,6.65
2019-04-04T09:07:30.822Z,6.69
2019-04-04T09:10:00.243Z,6.76
2019-04-04T09:12:29.518Z,6.88
2019-04-04T09:14:58.927Z,6.82
2019-04-04T09:17:28.146Z,6.98
2019-04-04T09:19:57.482Z,7.07
2019-04-04T09:22:26.800Z,7.21
2019-04-04T09:24:56.058Z,7.18
2019-04-04T09:27:25.379Z,7.10
2019-04-04T09:29:54.622Z,7.06
2019-04-04T09:32:23.939Z,7.03
2019-04-04T09:34:53.219Z,7.18
2019-04-04T09:37:22.501Z,7.23
2019-04-04T09:39:51.879Z,7.31
2019-04-04T09:42:21.238Z,7.38
2019-04-04T09:44:50.540Z,7.48
2019-04-04T09:47:20.017Z,7.61
2019-04-04T09:49:49.322Z,7.85
2019-04-04T09:52:18.637Z,8.14
2019-04-04T09:54:48.060Z,8.53
2019-04-04T09:57:17.347Z,8.86
2019-04-04T09:59:46.701Z,8.79
2019-04-04T10:02:16.123Z,8.52
2019-04-04T10:04:45.892Z,8.45
2019-04-04T10:07:15.246Z,8.47
2019-04-04T10:09:44.584Z,8.75
2019-04-04T10:12:13.859Z,8.96
2019-04-04T10:14:43.125Z,8.90
2019-04-04T10:17:12.470Z,8.64
2019-04-04T10:19:41.799Z,8.52
2019-04-04T10:22:11.297Z,8.57
2019-04-04T10:24:40.749Z,8.69
2019-04-04T10:27:10.093Z,8.72
2019-04-04T10:29:39.338Z,8.63
2019-04-04T10:32:08.653Z,8.50
2019-04-04T10:34:38.955Z,8.29
2019-04-04T10:37:08.237Z,8.18
2019-04-04T10:39:37.463Z,7.94
2019-04-04T10:42:06.763Z,7.90
2019-04-04T10:44:37.237Z,7.83
2019-04-04T10:47:06.790Z,7.80
2019-04-04T10:49:36.150Z,7.80
2019-04-04T10:52:05.546Z,7.74
2019-04-04T10:54:34.789Z,7.75
2019-04-04T10:57:04.141Z,7.89
2019-04-04T10:59:33.472Z,8.00
2019-04-04T11:02:02.726Z,8.12
2019-04-04T11:04:32.106Z,8.23
2019-04-04T11:07:01.593Z,8.35
2019-04-04T11:09:41.385Z,8.55
2019-04-04T11:12:01.949Z,8.76
2019-04-04T11:14:31.348Z,8.86
2019-04-04T11:17:00.649Z,8.77
2019-04-04T11:19:31.417Z,8.59
2019-04-04T11:22:00.942Z,8.56
2019-04-04T11:24:30.330Z,8.46
2019-04-04T11:26:59.593Z,8.59
2019-04-04T11:29:28.867Z,8.68
2019-04-04T11:31:58.613Z,8.85
2019-04-04T11:34:28.002Z,8.80
2019-04-04T11:36:57.270Z,8.58
2019-04-04T11:39:26.595Z,8.41
2019-04-04T11:41:55.776Z,8.33
2019-04-04T11:44:25.038Z,8.25
2019-04-04T11:46:54.347Z,8.12
2019-04-04T11:49:23.658Z,8.01
2019-04-04T11:51:52.954Z,7.94
2019-04-04T11:54:22.379Z,7.82
2019-04-04T11:56:51.647Z,7.68
2019-04-04T11:59:21.062Z,7.56
2019-04-04T12:01:50.417Z,7.50
2019-04-04T12:04:19.838Z,7.34
2019-04-04T12:06:49.096Z,7.20
2019-04-04T12:09:18.465Z,7.16
2019-04-04T12:11:47.779Z,7.13
2019-04-04T12:14:17.122Z,7.15
2019-04-04T12:16:46.453Z,7.24
2019-04-04T12:19:15.982Z,7.37
2019-04-04T12:21:45.256Z,7.51
2019-04-04T12:24:14.669Z,7.59
2019-04-04T12:26:43.967Z,7.62
2019-04-04T12:29:13.261Z,7.61
2019-04-04T12:31:42.657Z,7.60
2019-04-04T12:34:14.128Z,7.47
2019-04-04T12:36:43.366Z,7.45
2019-04-04T12:39:12.706Z,7.38
2019-04-04T12:41:41.956Z,7.28
2019-04-04T12:44:11.345Z,7.40
2019-04-04T12:46:42.525Z,7.63
2019-04-04T12:49:11.654Z,7.68
2019-04-04T12:51:41.002Z,7.89
2019-04-04T12:54:10.443Z,8.03
2019-04-04T12:56:39.756Z,8.11
2019-04-04T12:59:09.073Z,7.86
2019-04-04T13:01:38.390Z,7.70
2019-04-04T13:04:07.717Z,7.64
2019-04-04T13:06:37.184Z,7.62
2019-04-04T13:09:08.351Z,7.61
2019-04-04T13:11:37.828Z,7.59
2019-04-04T13:14:07.326Z,7.50
2019-04-04T13:16:36.771Z,7.54
2019-04-04T13:19:06.100Z,7.61
2019-04-04T13:21:35.350Z,7.65
2019-04-04T13:24:04.677Z,7.52
2019-04-04T13:26:33.963Z,7.27
2019-04-04T13:29:03.197Z,7.25
2019-04-04T13:31:32.502Z,7.22
2019-04-04T13:34:01.740Z,7.02
2019-04-04T13:36:31.308Z,6.90
2019-04-04T13:39:00.559Z,7.06
2019-04-04T13:41:29.821Z,7.13
2019-04-04T13:43:59.167Z,7.21
2019-04-04T13:46:29.393Z,7.22
2019-04-04T13:48:58.714Z,7.22
2019-04-04T13:51:27.989Z,7.17
2019-04-04T13:53:57.374Z,7.10
2019-04-04T13:56:29.116Z,6.92
2019-04-04T13:59:01.167Z,6.85
2019-04-04T14:01:28.680Z,6.76
2019-04-04T14:03:57.994Z,6.74
2019-04-04T14:06:27.342Z,6.76
2019-04-04T14:08:56.624Z,6.81
2019-04-04T14:11:25.955Z,6.72
2019-04-04T14:13:55.533Z,6.65
2019-04-04T14:16:25.171Z,6.58
2019-04-04T14:18:54.598Z,6.52
2019-04-04T14:21:23.838Z,6.50
2019-04-04T14:23:53.197Z,6.52
2019-04-04T14:26:26.045Z,6.55
2019-04-04T14:28:55.447Z,6.58
2019-04-04T14:31:24.861Z,6.58
2019-04-04T14:33:54.257Z,6.61
2019-04-04T14:36:23.547Z,6.65
2019-04-04T14:38:52.950Z,6.71
2019-04-04T14:41:22.249Z,6.73
2019-04-04T14:43:51.573Z,6.67
2019-04-04T14:46:20.930Z,6.66
2019-04-04T14:48:50.383Z,6.65
2019-04-04T14:51:19.811Z,6.67
2019-04-04T14:53:49.201Z,6.58
2019-04-04T14:56:18.704Z,6.56
2019-04-04T14:58:48.755Z,6.51
2019-04-04T15:01:18.117Z,6.48
2019-04-04T15:03:47.534Z,6.51
2019-04-04T15:06:16.922Z,6.53
2019-04-04T15:08:46.266Z,6.51
2019-04-04T15:11:24.035Z,6.55
2019-04-04T15:13:46.777Z,6.52
2019-04-04T15:16:18.510Z,6.53
2019-04-04T15:18:48.349Z,6.52
2019-04-04T15:21:17.946Z,6.55
2019-04-04T15:23:47.835Z,6.58
2019-04-04T15:26:17.314Z,6.58
2019-04-04T15:28:46.622Z,6.59
2019-04-04T15:31:16.181Z,6.54
2019-04-04T15:33:45.841Z,6.56
2019-04-04T15:36:16.312Z,6.57
2019-04-04T15:38:45.719Z,6.64
2019-04-04T15:41:15.288Z,6.56
2019-04-04T15:43:46.087Z,6.40
2019-04-04T15:46:16.639Z,6.43
2019-04-04T15:48:46.181Z,6.42
2019-04-04T15:51:15.654Z,6.45
2019-04-04T15:53:45.354Z,6.50
2019-04-04T15:56:20.796Z,6.52
2019-04-04T15:58:50.336Z,6.55
2019-04-04T16:01:19.870Z,6.48
2019-04-04T16:03:49.301Z,6.48
2019-04-04T16:06:18.826Z,6.42
2019-04-04T16:08:48.392Z,6.41
2019-04-04T16:11:20.069Z,6.43
2019-04-04T16:13:49.633Z,6.46
2019-04-04T16:16:19.265Z,6.50
2019-04-04T16:18:48.917Z,6.52
2019-04-04T16:21:18.451Z,6.55
2019-04-04T16:23:47.902Z,6.56
2019-04-04T16:26:18.771Z,6.49
2019-04-04T16:28:48.338Z,6.45
2019-04-04T16:31:17.913Z,6.44
2019-04-04T16:33:47.580Z,6.42
2019-04-04T16:36:17.116Z,6.42
2019-04-04T16:38:46.626Z,6.45
2019-04-04T16:41:16.181Z,6.41
2019-04-04T16:43:45.691Z,6.32
2019-04-04T16:46:15.437Z,6.30
2019-04-04T16:48:44.981Z,6.28
2019-04-04T16:51:14.530Z,6.31
2019-04-04T16:53:44.134Z,6.30
2019-04-04T16:56:13.965Z,6.34
2019-04-04T16:58:43.582Z,6.37
2019-04-04T17:01:13.090Z,6.40
2019-04-04T17:03:42.626Z,6.45
2019-04-04T17:06:14.667Z,6.49
2019-04-04T17:08:44.301Z,6.47
2019-04-04T17:11:13.964Z,6.47
2019-04-04T17:13:43.682Z,6.47
2019-04-04T17:16:13.414Z,6.48
2019-04-04T17:18:43.634Z,6.51
2019-04-04T17:21:13.235Z,6.51
2019-04-04T17:23:42.867Z,6.52
2019-04-04T17:26:12.766Z,6.54
2019-04-04T17:28:42.570Z,6.53
2019-04-04T17:31:12.498Z,6.51
2019-04-04T17:33:42.389Z,6.51
2019-04-04T17:36:12.224Z,6.48
2019-04-04T17:38:41.844Z,6.42
2019-04-04T17:41:11.430Z,6.35
2019-04-04T17:43:41.504Z,6.26
2019-04-04T17:46:11.467Z,6.21
2019-04-04T17:48:41.259Z,6.14
2019-04-04T17:51:11.164Z,6.10
2019-04-04T17:53:40.906Z,6.09
2019-04-04T17:56:22.802Z,6.09
2019-04-04T17:58:52.417Z,6.08
2019-04-04T18:01:22.155Z,6.09
2019-04-04T18:03:51.881Z,6.08
2019-04-04T18:06:21.734Z,6.09
2019-04-04T18:08:51.825Z,6.11
2019-04-04T18:11:21.647Z,6.12
2019-04-04T18:13:51.289Z,6.10
2019-04-04T18:16:21.069Z,6.10
2019-04-04T18:18:51.636Z,6.11
2019-04-04T18:21:21.481Z,6.11
2019-04-04T18:23:51.146Z,6.13
2019-04-04T18:26:21.962Z,6.17
2019-04-04T18:28:51.729Z,6.17
2019-04-04T18:31:21.309Z,6.15
2019-04-04T18:33:51.008Z,6.13
2019-04-04T18:36:20.890Z,6.14
2019-04-04T18:38:51.507Z,6.19
2019-04-04T18:41:21.317Z,6.15
2019-04-04T18:43:51.475Z,6.10
2019-04-04T18:46:21.218Z,6.07
2019-04-04T18:48:51.329Z,6.05
2019-04-04T18:51:20.985Z,6.02
2019-04-04T18:53:50.728Z,5.98
2019-04-04T18:56:20.455Z,5.97
2019-04-04T18:58:50.208Z,5.96
2019-04-04T19:01:20.984Z,6.00
2019-04-04T19:03:50.662Z,5.96
2019-04-04T19:06:20.297Z,5.97
2019-04-04T19:08:50.848Z,6.01
2019-04-04T19:11:20.822Z,6.00
2019-04-04T19:13:50.544Z,5.98
2019-04-04T19:16:20.274Z,5.96
2019-04-04T19:18:49.917Z,5.97
2019-04-04T19:21:20.017Z,5.97
2019-04-04T19:23:49.824Z,5.93
2019-04-04T19:26:20.104Z,5.95
2019-04-04T19:28:50.152Z,5.94
2019-04-04T19:31:20.027Z,5.94
2019-04-04T19:33:49.774Z,5.97
2019-04-04T19:36:19.872Z,5.97
2019-04-04T19:38:49.514Z,6.00
2019-04-04T19:41:19.193Z,5.98
2019-04-04T19:43:49.233Z,5.97
2019-04-04T19:46:19.068Z,5.98
2019-04-04T19:48:48.789Z,6.00
2019-04-04T19:51:18.404Z,6.01
2019-04-04T19:53:48.710Z,6.00
2019-04-04T19:56:20.767Z,6.00
2019-04-04T19:58:50.671Z,6.02
2019-04-04T20:01:20.213Z,5.98
2019-04-04T20:03:49.838Z,5.99
2019-04-04T20:06:19.452Z,6.00
2019-04-04T20:08:53.289Z,6.02
2019-04-04T20:11:20.521Z,6.01
2019-04-04T20:13:50.153Z,6.02
2019-04-04T20:16:19.827Z,6.02
2019-04-04T20:18:49.547Z,6.03
2019-04-04T20:21:19.152Z,6.02
2019-04-04T20:23:50.348Z,6.01
2019-04-04T20:26:19.943Z,6.01
2019-04-04T20:28:49.632Z,6.03
2019-04-04T20:31:19.278Z,6.05
2019-04-04T20:34:00.621Z,6.07
2019-04-04T20:36:20.235Z,6.11
2019-04-04T20:38:49.945Z,6.09
2019-04-04T20:41:19.477Z,6.07
2019-04-04T20:43:49.072Z,6.06
2019-04-04T20:46:18.739Z,6.06
2019-04-04T20:48:48.760Z,6.06
2019-04-04T20:51:18.235Z,6.05
2019-04-04T20:53:47.813Z,6.05
2019-04-04T20:56:17.522Z,6.08
2019-04-04T20:58:47.049Z,6.03
2019-04-04T21:01:16.709Z,6.06
2019-04-04T21:03:46.274Z,6.05
2019-04-04T21:06:15.632Z,6.06
2019-04-04T21:08:45.139Z,6.08
2019-04-04T21:11:14.757Z,6.09
2019-04-04T21:13:55.523Z,6.09
2019-04-04T21:16:15.652Z,6.09
2019-04-04T21:18:45.029Z,6.10
2019-04-04T21:21:14.301Z,6.09
2019-04-04T21:23:43.570Z,6.07
2019-04-04T21:26:12.969Z,6.09
2019-04-04T21:28:42.321Z,6.09
2019-04-04T21:31:11.635Z,6.06
2019-04-04T21:33:41.053Z,6.04
2019-04-04T21:36:10.481Z,6.04
2019-04-04T21:38:39.841Z,6.03
2019-04-04T21:41:09.319Z,6.04
2019-04-04T21:43:38.661Z,6.04
2019-04-04T21:46:07.940Z,6.05
2019-04-04T21:48:37.374Z,6.03
2019-04-04T21:51:06.637Z,6.01
2019-04-04T21:53:36.006Z,6.02
2019-04-04T21:56:05.301Z,6.00
2019-04-04T21:58:34.628Z,6.02
2019-04-04T22:01:04.473Z,6.00
2019-04-04T22:03:36.546Z,5.99
2019-04-04T22:06:04.956Z,5.94
2019-04-04T22:08:34.320Z,5.95
2019-04-04T22:11:03.768Z,5.93
2019-04-04T22:13:33.008Z,5.92
2019-04-04T22:16:02.422Z,5.94
2019-04-04T22:18:32.061Z,5.89
2019-04-04T22:21:01.476Z,5.90
2019-04-04T22:23:30.766Z,5.92
2019-04-04T22:26:00.092Z,5.92
2019-04-04T22:28:29.512Z,5.90
2019-04-04T22:30:59.117Z,5.91
2019-04-04T22:33:28.441Z,5.94
2019-04-04T22:35:57.819Z,5.93
2019-04-04T22:38:27.093Z,5.95
2019-04-04T22:40:56.452Z,5.94
2019-04-04T22:43:25.788Z,5.92
2019-04-04T22:45:55.157Z,5.90
2019-04-04T22:48:24.472Z,5.89
2019-04-04T22:50:55.068Z,5.90
2019-04-04T22:53:24.411Z,5.90
2019-04-04T22:55:53.787Z,5.87
2019-04-04T22:58:28.420Z,5.87
2019-04-04T23:00:54.088Z,5.89
2019-04-04T23:03:25.322Z,5.90
2019-04-04T23:05:54.557Z,5.91
2019-04-04T23:08:23.877Z,5.91
2019-04-04T23:10:53.147Z,5.89
2019-04-04T23:13:22.434Z,5.89
2019-04-04T23:15:51.814Z,5.90
2019-04-04T23:18:21.111Z,5.90
2019-04-04T23:20:50.453Z,5.89
2019-04-04T23:23:19.806Z,5.89
2019-04-04T23:25:49.072Z,5.90
2019-04-04T23:28:18.848Z,5.91
2019-04-04T23:30:48.112Z,5.91
2019-04-04T23:33:17.474Z,5.92
2019-04-04T23:35:46.679Z,5.95
2019-04-04T23:38:16.099Z,5.93
2019-04-04T23:40:45.370Z,5.93
2019-04-04T23:43:14.834Z,5.95
2019-04-04T23:45:44.132Z,5.94
2019-04-04T23:48:13.561Z,5.95
2019-04-04T23:50:42.891Z,5.94
2019-04-04T23:53:12.269Z,5.94
2019-04-04T23:55:41.633Z,5.92
2019-04-04T23:58:11.024Z,5.93
